Time;durP1;ratioP1;P1;durP2;ratioP2;P2;SDS_P1;SDS_P2;PMS_P1;PMS_P2;Temp;Humidity;BMP_temperature;BMP_pressure;BME280_temperature;BME280_humidity;BME280_pressure;Samples;Min_cycle;Max_cycle;Signal;HPM_P1;HPM_P2
2023/05/20 00:02:26;;;;;;;16.60;12.70;;;;;;;13.26;86.99;101240.15;130957;1250;107549;-74
2023/05/20 00:05:31;;;;;;;16.90;12.40;;;;;;;13.23;87.04;101237.17;131016;1254;107406;-78
2023/05/20 00:08:37;;;;;;;14.50;10.40;;;;;;;13.24;87.11;101229.04;131078;1254;107539;-75
2023/05/20 00:11:42;;;;;;;16.70;12.00;;;;;;;13.29;87.08;101223.38;131169;1251;107504;-76
2023/05/20 00:14:48;;;;;;;17.20;12.50;;;;;;;13.32;87.06;101222.07;131045;1254;107137;-75
2023/05/20 00:17:54;;;;;;;16.70;12.90;;;;;;;13.35;86.98;101219.99;131021;1254;108104;-74
2023/05/20 00:21:00;;;;;;;16.90;11.90;;;;;;;13.38;87.12;101219.21;131102;1254;107473;-75
2023/05/20 00:24:05;;;;;;;14.10;10.70;;;;;;;13.33;87.00;101221.03;131260;1255;107503;-75
2023/05/20 00:27:11;;;;;;;14.60;10.80;;;;;;;13.29;87.12;101222.67;131147;1263;107517;-74
2023/05/20 00:30:17;;;;;;;14.20;10.80;;;;;;;13.27;87.19;101222.17;131061;1251;107332;-74
2023/05/20 00:33:22;;;;;;;14.20;10.60;;;;;;;13.26;87.31;101216.70;130938;1254;106219;-75
2023/05/20 00:36:28;;;;;;;16.60;11.10;;;;;;;13.30;87.25;101219.23;131004;1254;106495;-76
2023/05/20 00:39:33;;;;;;;14.70;12.00;;;;;;;13.33;87.06;101212.44;130980;1258;107494;-74
2023/05/20 00:42:39;;;;;;;13.70;10.00;;;;;;;13.31;87.08;101211.10;130972;1250;107551;-73
2023/05/20 00:45:45;;;;;;;12.30;9.80;;;;;;;13.31;87.23;101213.18;130968;1256;107548;-80
2023/05/20 00:48:51;;;;;;;17.60;11.50;;;;;;;13.34;87.19;101213.13;131100;1250;107513;-80
2023/05/20 00:51:57;;;;;;;14.80;10.80;;;;;;;13.34;87.29;101215.63;131166;1254;107520;-76
2023/05/20 00:55:03;;;;;;;13.20;10.90;;;;;;;13.35;87.15;101225.33;131048;1255;105821;-75
2023/05/20 00:58:09;;;;;;;15.50;11.70;;;;;;;13.38;87.16;101227.64;131026;1255;107440;-76
2023/05/20 01:01:15;;;;;;;13.90;10.10;;;;;;;13.32;87.36;101227.04;130996;1264;107531;-76
2023/05/20 01:04:21;;;;;;;12.90;9.80;;;;;;;13.29;87.31;101227.34;130994;1250;107370;-76
2023/05/20 01:07:27;;;;;;;13.10;9.70;;;;;;;13.31;87.47;101228.39;131237;1251;107439;-76
2023/05/20 01:10:34;;;;;;;14.30;10.50;;;;;;;13.35;87.36;101228.81;130983;1255;108122;-76
2023/05/20 01:13:45;;;;;;;14.60;10.20;;;;;;;13.37;87.44;101225.20;131105;1254;107511;-76
2023/05/20 01:16:52;;;;;;;14.00;10.50;;;;;;;13.41;87.43;101225.56;131105;1250;107692;-76
2023/05/20 01:20:00;;;;;;;13.00;9.30;;;;;;;13.43;87.49;101223.33;131367;1249;107377;-76
2023/05/20 01:23:05;;;;;;;12.20;8.90;;;;;;;13.44;87.46;101219.84;131180;1249;108113;-77
2023/05/20 01:26:12;;;;;;;14.50;10.90;;;;;;;13.44;87.61;101219.31;131109;1251;107375;-77
2023/05/20 01:29:18;;;;;;;17.30;11.30;;;;;;;13.37;87.59;101223.24;131124;1255;107448;-75
2023/05/20 01:32:30;;;;;;;13.60;11.40;;;;;;;13.28;87.82;101222.99;131217;1249;106273;-75
2023/05/20 01:35:36;;;;;;;13.80;10.90;;;;;;;13.25;87.92;101221.65;131115;1254;107545;-75
2023/05/20 01:38:43;;;;;;;15.80;11.50;;;;;;;13.22;87.88;101220.16;130953;1255;107541;-76
2023/05/20 01:41:49;;;;;;;14.10;10.10;;;;;;;13.18;88.07;101222.45;130918;1255;107500;-77
2023/05/20 01:44:55;;;;;;;12.60;9.70;;;;;;;13.20;88.02;101222.30;131124;1254;107545;-74
2023/05/20 01:48:01;;;;;;;14.10;10.20;;;;;;;13.26;88.10;101214.41;130877;1257;108072;-75
2023/05/20 01:51:07;;;;;;;13.70;11.10;;;;;;;13.31;88.12;101211.25;130998;1255;107474;-75
2023/05/20 01:54:12;;;;;;;16.50;13.10;;;;;;;13.35;87.83;101208.50;131024;1249;107224;-75
2023/05/20 01:57:18;;;;;;;13.40;10.60;;;;;;;13.33;87.93;101209.39;131133;1250;107653;-74
2023/05/20 02:00:24;;;;;;;12.40;9.80;;;;;;;13.34;87.93;101207.36;131060;1250;107517;-74
2023/05/20 02:03:29;;;;;;;14.20;9.70;;;;;;;13.36;87.99;101207.58;131219;1254;106415;-74
2023/05/20 02:06:35;;;;;;;15.20;9.90;;;;;;;13.35;87.87;101203.73;131166;1251;107217;-74
2023/05/20 02:09:41;;;;;;;13.00;10.20;;;;;;;13.37;87.99;101203.94;130929;1256;107618;-77
2023/05/20 02:12:48;;;;;;;13.80;11.10;;;;;;;13.40;88.04;101206.30;130972;1256;107508;-75
2023/05/20 02:15:54;;;;;;;12.70;9.00;;;;;;;13.42;87.95;101210.80;130977;1254;107356;-74
2023/05/20 02:19:00;;;;;;;11.50;8.50;;;;;;;13.42;88.05;101212.52;130945;1255;107346;-74
2023/05/20 02:22:07;;;;;;;14.20;9.70;;;;;;;13.44;87.91;101214.15;131056;1252;107396;-75
2023/05/20 02:25:13;;;;;;;14.10;10.60;;;;;;;13.45;88.04;101209.27;131165;1254;106005;-74
2023/05/20 02:28:19;;;;;;;14.80;11.00;;;;;;;13.47;87.97;101210.46;130878;1257;107273;-75
2023/05/20 02:31:24;;;;;;;18.80;11.30;;;;;;;13.47;87.82;101208.30;130942;1250;107546;-75
2023/05/20 02:34:31;;;;;;;13.50;9.50;;;;;;;13.46;87.94;101206.96;130929;1254;107248;-75
2023/05/20 02:37:37;;;;;;;14.30;9.30;;;;;;;13.43;87.94;101206.20;130983;1265;107465;-77
2023/05/20 02:40:45;;;;;;;13.80;9.80;;;;;;;13.44;88.01;101205.03;130974;1254;106135;-75
2023/05/20 02:43:51;;;;;;;11.90;9.40;;;;;;;13.46;88.16;101206.40;131071;1255;107321;-77
2023/05/20 02:46:56;;;;;;;12.10;9.90;;;;;;;13.51;88.08;101208.46;130970;1254;107622;-76
2023/05/20 02:50:02;;;;;;;11.80;9.30;;;;;;;13.54;88.08;101208.52;131075;1250;107445;-75
2023/05/20 02:53:08;;;;;;;12.60;8.60;;;;;;;13.54;88.01;101207.38;131124;1255;107398;-77
2023/05/20 02:56:13;;;;;;;9.80;8.30;;;;;;;13.54;88.20;101208.55;131022;1250;107527;-75
2023/05/20 02:59:19;;;;;;;12.80;9.30;;;;;;;13.55;88.09;101212.51;130986;1250;107531;-75
2023/05/20 03:02:24;;;;;;;12.40;9.30;;;;;;;13.55;88.12;101209.11;131053;1253;107526;-77
2023/05/20 03:05:31;;;;;;;12.70;10.20;;;;;;;13.58;88.19;101212.94;130785;1251;213501;-76
2023/05/20 03:08:38;;;;;;;13.30;10.00;;;;;;;13.61;88.16;101212.85;130983;1256;107575;-73
2023/05/20 03:11:44;;;;;;;15.40;10.90;;;;;;;13.61;88.19;101213.95;131033;1254;107393;-74
2023/05/20 03:14:53;;;;;;;13.00;9.40;;;;;;;13.56;88.20;101215.09;131117;1265;107504;-74
2023/05/20 03:17:59;;;;;;;13.50;10.10;;;;;;;13.54;88.22;101219.74;131026;1251;107389;-74
2023/05/20 03:21:05;;;;;;;16.30;10.20;;;;;;;13.55;88.39;101219.29;131097;1250;107630;-76
2023/05/20 03:24:10;;;;;;;14.30;10.60;;;;;;;13.59;88.22;101218.73;131086;1257;108002;-74
2023/05/20 03:27:16;;;;;;;14.40;11.10;;;;;;;13.62;88.18;101217.73;131085;1249;107377;-77
2023/05/20 03:30:22;;;;;;;16.50;11.40;;;;;;;13.60;88.31;101217.83;130961;1258;107523;-77
2023/05/20 03:33:28;;;;;;;18.40;12.20;;;;;;;13.57;88.49;101217.54;131064;1254;107396;-77
2023/05/20 03:36:33;;;;;;;16.00;11.00;;;;;;;13.57;88.55;101217.22;130961;1250;107379;-77
2023/05/20 03:39:39;;;;;;;14.90;11.40;;;;;;;13.59;88.69;101213.20;131262;1255;107379;-77
2023/05/20 03:42:45;;;;;;;16.30;11.10;;;;;;;13.63;88.80;101215.46;131080;1249;107513;-77
2023/05/20 03:45:52;;;;;;;18.70;13.10;;;;;;;13.67;88.76;101220.08;130964;1250;107488;-77
2023/05/20 03:48:57;;;;;;;16.20;11.60;;;;;;;13.65;88.73;101223.73;131123;1267;107502;-77
2023/05/20 03:52:03;;;;;;;15.80;10.90;;;;;;;13.64;88.85;101225.83;130948;1257;107540;-77
2023/05/20 03:55:10;;;;;;;14.80;10.90;;;;;;;13.70;88.96;101228.02;130898;1250;107433;-76
2023/05/20 03:58:15;;;;;;;15.30;11.10;;;;;;;13.79;88.77;101224.20;130896;1250;107388;-77
2023/05/20 04:01:24;;;;;;;15.20;11.30;;;;;;;13.83;88.95;101221.98;131069;1250;107367;-76
2023/05/20 04:04:31;;;;;;;18.30;12.40;;;;;;;13.86;88.96;101223.30;131225;1254;107448;-76
2023/05/20 04:07:37;;;;;;;13.40;9.40;;;;;;;13.87;89.01;101226.02;131182;1254;106379;-76
2023/05/20 04:10:43;;;;;;;17.50;11.50;;;;;;;13.91;89.03;101222.79;131119;1253;107362;-76
2023/05/20 04:13:50;;;;;;;15.70;11.40;;;;;;;13.96;89.08;101224.67;131247;1254;106487;-77
2023/05/20 04:16:56;;;;;;;17.30;12.50;;;;;;;14.00;89.15;101220.83;130848;1257;107541;-76
2023/05/20 04:20:04;;;;;;;15.70;11.70;;;;;;;13.98;89.33;101224.40;131002;1249;107662;-76
2023/05/20 04:23:10;;;;;;;15.40;12.30;;;;;;;14.02;89.43;101223.14;130962;1249;107477;-77
2023/05/20 04:26:15;;;;;;;15.70;11.80;;;;;;;14.05;89.39;101227.15;131012;1251;107489;-76
2023/05/20 04:29:21;;;;;;;15.10;10.90;;;;;;;14.08;89.28;101223.61;130949;1254;107279;-76
2023/05/20 04:32:27;;;;;;;16.60;10.60;;;;;;;14.14;89.03;101224.23;131004;1256;107356;-77
2023/05/20 04:35:33;;;;;;;14.50;10.70;;;;;;;14.22;88.86;101219.34;131148;1249;107453;-78
2023/05/20 04:38:43;;;;;;;15.80;11.00;;;;;;;14.29;88.60;101222.92;131158;1253;108019;-79
2023/05/20 04:41:53;;;;;;;11.10;9.80;;;;;;;14.36;88.47;101222.15;130848;1257;108403;-78
2023/05/20 04:45:00;;;;;;;14.50;10.10;;;;;;;14.40;88.41;101218.80;131082;1254;107434;-79
2023/05/20 04:48:08;;;;;;;14.60;10.00;;;;;;;14.45;88.36;101219.89;131024;1254;107472;-77
2023/05/20 04:51:15;;;;;;;13.20;9.80;;;;;;;14.49;88.17;101217.73;131091;1253;107395;-77
2023/05/20 04:54:20;;;;;;;15.60;9.70;;;;;;;14.50;88.04;101215.52;130913;1250;107489;-77
2023/05/20 04:57:26;;;;;;;11.90;9.80;;;;;;;14.51;87.97;101217.36;130989;1252;107391;-77
2023/05/20 05:00:32;;;;;;;15.00;9.60;;;;;;;14.53;88.01;101211.41;131171;1255;107523;-78
2023/05/20 05:03:37;;;;;;;15.60;9.60;;;;;;;14.57;87.96;101219.89;131275;1249;107377;-74
2023/05/20 05:06:43;;;;;;;12.20;9.30;;;;;;;14.60;88.10;101223.16;131280;1249;107356;-80
2023/05/20 05:09:49;;;;;;;11.00;7.70;;;;;;;14.62;87.87;101228.61;131109;1252;107584;-80
2023/05/20 05:12:54;;;;;;;12.90;9.30;;;;;;;14.65;87.80;101229.61;130965;1250;107499;-82
2023/05/20 05:16:01;;;;;;;14.60;10.30;;;;;;;14.68;87.39;101225.20;131399;1254;106540;-81
2023/05/20 05:19:08;;;;;;;13.80;10.10;;;;;;;14.67;87.45;101221.54;131200;1251;106559;-80
2023/05/20 05:22:15;;;;;;;12.90;8.70;;;;;;;14.67;87.73;101227.20;131213;1252;107453;-80
2023/05/20 05:25:21;;;;;;;12.50;8.50;;;;;;;14.75;87.59;101226.08;131427;1253;107510;-80
2023/05/20 05:28:27;;;;;;;13.10;8.70;;;;;;;14.84;87.47;101228.35;131389;1254;106697;-80
2023/05/20 05:31:33;;;;;;;11.20;7.70;;;;;;;14.90;87.16;101228.48;131169;1255;107524;-78
2023/05/20 05:34:38;;;;;;;9.80;8.10;;;;;;;15.00;87.14;101231.84;131012;1249;107381;-78
2023/05/20 05:37:44;;;;;;;10.60;8.10;;;;;;;15.07;86.46;101232.42;131007;1254;107535;-79
2023/05/20 05:40:50;;;;;;;12.70;8.60;;;;;;;15.06;86.52;101232.61;131057;1254;107447;-79
2023/05/20 05:43:56;;;;;;;12.40;8.60;;;;;;;15.05;86.35;101232.27;131019;1255;107346;-79
2023/05/20 05:47:02;;;;;;;10.80;7.80;;;;;;;15.07;86.49;101229.04;130852;1257;107516;-79
2023/05/20 05:50:08;;;;;;;11.00;7.80;;;;;;;15.12;86.62;101233.16;131269;1254;107475;-79
2023/05/20 05:53:14;;;;;;;10.10;7.90;;;;;;;15.17;85.67;101237.89;131199;1249;107337;-79
2023/05/20 05:56:25;;;;;;;10.20;7.30;;;;;;;15.22;86.03;101235.53;131237;1253;108068;-78
2023/05/20 05:59:30;;;;;;;11.00;7.80;;;;;;;15.36;86.12;101235.17;131094;1255;107527;-78
2023/05/20 06:02:36;;;;;;;10.00;8.10;;;;;;;15.47;86.37;101236.02;131002;1251;107365;-78
2023/05/20 06:05:44;;;;;;;10.40;7.80;;;;;;;15.56;85.59;101237.41;131165;1254;107733;-79
2023/05/20 06:08:51;;;;;;;12.40;8.40;;;;;;;15.58;85.12;101233.30;131021;1254;107431;-79
2023/05/20 06:11:57;;;;;;;9.80;7.00;;;;;;;15.58;85.42;101237.59;130898;1256;107295;-79
2023/05/20 06:15:03;;;;;;;9.60;7.00;;;;;;;15.66;85.54;101241.52;131228;1263;107514;-80
2023/05/20 06:18:09;;;;;;;9.00;6.60;;;;;;;15.74;85.18;101242.04;131373;1251;107746;-80
2023/05/20 06:21:15;;;;;;;9.50;7.00;;;;;;;15.84;85.12;101240.02;131362;1256;107356;-81
2023/05/20 06:24:22;;;;;;;8.90;7.00;;;;;;;15.99;84.96;101246.73;131411;1249;107346;-78
2023/05/20 06:27:27;;;;;;;11.40;7.70;;;;;;;16.11;84.77;101244.74;131016;1249;107554;-77
2023/05/20 06:30:33;;;;;;;9.90;7.30;;;;;;;16.12;83.47;101241.25;131390;1252;107541;-82
2023/05/20 06:33:39;;;;;;;22.60;17.80;;;;;;;16.13;83.78;101242.88;131193;1249;107446;-85
2023/05/20 06:36:48;;;;;;;11.50;8.60;;;;;;;16.24;83.83;101240.09;131200;1254;107381;-82
2023/05/20 06:39:54;;;;;;;12.20;7.70;;;;;;;16.36;82.67;101235.98;131240;1250;106629;-79
2023/05/20 06:43:01;;;;;;;9.90;7.00;;;;;;;16.41;82.83;101234.70;130999;1252;107533;-80
2023/05/20 06:46:26;;;;;;;9.10;6.50;;;;;;;16.69;83.69;101237.86;131003;1250;107476;-79
2023/05/20 06:49:40;;;;;;;6.90;6.10;;;;;;;16.98;82.77;101237.81;131110;1250;106515;-79
2023/05/20 06:52:46;;;;;;;7.40;5.90;;;;;;;17.17;81.77;101243.06;130938;1257;107525;-80
2023/05/20 06:55:54;;;;;;;9.70;6.80;;;;;;;17.24;80.36;101237.14;131278;1254;107356;-79
2023/05/20 06:59:00;;;;;;;8.80;6.70;;;;;;;17.34;81.19;101237.15;131051;1249;107524;-79
2023/05/20 07:02:07;;;;;;;7.30;5.60;;;;;;;17.45;81.04;101242.64;130918;1258;107429;-80
2023/05/20 07:05:13;;;;;;;8.00;6.00;;;;;;;17.51;80.26;101234.10;130918;1255;107419;-79
2023/05/20 07:08:18;;;;;;;8.30;6.20;;;;;;;17.64;80.95;101234.60;131276;1251;107516;-80
2023/05/20 07:11:24;;;;;;;10.10;6.10;;;;;;;17.83;81.18;101233.74;131191;1253;107371;-78
2023/05/20 07:14:30;;;;;;;9.50;6.50;;;;;;;18.02;80.91;101226.90;131060;1257;105795;-81
2023/05/20 07:17:36;;;;;;;10.50;6.60;;;;;;;18.06;78.13;101229.28;130993;1255;107358;-81
2023/05/20 07:20:46;;;;;;;9.00;6.70;;;;;;;18.01;79.02;101230.62;130995;1255;109564;-81
2023/05/20 07:24:06;;;;;;;7.90;6.40;;;;;;;18.05;79.53;101230.13;131064;1255;107500;-79
2023/05/20 07:27:12;;;;;;;8.30;6.30;;;;;;;18.19;79.91;101228.14;131008;1251;106630;-79
2023/05/20 07:30:18;;;;;;;9.70;6.70;;;;;;;18.33;78.29;101223.80;130971;1257;108124;-81
2023/05/20 07:33:31;;;;;;;7.20;5.10;;;;;;;18.33;78.36;101222.67;130953;1255;107462;-78
2023/05/20 07:36:41;;;;;;;9.20;5.50;;;;;;;18.41;79.11;101214.16;131012;1258;107535;-79
2023/05/20 07:39:47;;;;;;;7.00;5.40;;;;;;;18.55;78.67;101214.40;130900;1251;107383;-79
2023/05/20 07:42:52;;;;;;;8.50;5.50;;;;;;;18.66;78.30;101213.08;130989;1252;108329;-77
2023/05/20 07:45:58;;;;;;;6.90;5.20;;;;;;;18.72;77.88;101199.45;130966;1253;107359;-84
2023/05/20 07:49:04;;;;;;;6.60;4.80;;;;;;;18.78;77.71;101195.61;131188;1258;107393;-89
2023/05/20 07:52:10;;;;;;;7.10;4.90;;;;;;;18.82;77.08;101187.87;131335;1263;107355;-88
2023/05/20 07:55:17;;;;;;;7.50;5.40;;;;;;;18.76;76.41;101188.09;131253;1255;107512;-88
2023/05/20 07:58:23;;;;;;;8.10;5.20;;;;;;;18.69;76.80;101189.13;131331;1251;107543;-87
2023/05/20 08:01:30;;;;;;;7.00;5.50;;;;;;;18.73;77.56;101191.33;131298;1255;107324;-88
2023/05/20 08:04:37;;;;;;;6.80;5.00;;;;;;;18.81;76.76;101189.69;131280;1256;107424;-87
2023/05/20 08:07:43;;;;;;;6.60;5.00;;;;;;;18.90;77.08;101186.62;131132;1255;107240;-87
2023/05/20 08:10:50;;;;;;;7.50;4.90;;;;;;;18.98;77.01;101181.30;131227;1252;107401;-87
2023/05/20 08:13:56;;;;;;;6.20;5.20;;;;;;;19.04;75.52;101180.95;131208;1257;107547;-87
2023/05/20 08:17:03;;;;;;;7.80;5.40;;;;;;;19.03;75.83;101182.69;131316;1251;107422;-87
2023/05/20 08:20:11;;;;;;;8.10;5.10;;;;;;;19.11;76.01;101184.76;131363;1253;108432;-87
2023/05/20 08:23:17;;;;;;;7.40;5.50;;;;;;;19.20;76.13;101177.89;131114;1253;107388;-87
2023/05/20 08:26:22;;;;;;;8.20;5.90;;;;;;;19.34;76.01;101174.44;131209;1255;107491;-85
2023/05/20 08:29:29;;;;;;;7.80;5.50;;;;;;;19.32;73.64;101176.91;131095;1251;107444;-85
2023/05/20 08:32:36;;;;;;;7.30;5.80;;;;;;;19.34;74.96;101171.33;131011;1255;107543;-87
2023/05/20 08:35:42;;;;;;;8.90;5.40;;;;;;;19.38;74.38;101171.63;131157;1253;107488;-86
2023/05/20 08:38:48;;;;;;;7.90;5.60;;;;;;;19.38;74.81;101171.02;131046;1255;107431;-85
2023/05/20 08:41:53;;;;;;;8.40;5.10;;;;;;;19.46;75.15;101173.73;131282;1255;107262;-85
2023/05/20 08:45:00;;;;;;;8.20;5.90;;;;;;;19.49;74.79;101166.73;131131;1252;107195;-85
2023/05/20 08:48:09;;;;;;;6.70;5.80;;;;;;;19.62;75.12;101160.84;131054;1252;107394;-84
2023/05/20 08:51:16;;;;;;;7.30;6.30;;;;;;;19.81;74.10;101156.29;131060;1255;106696;-84
2023/05/20 08:54:25;;;;;;;8.40;6.70;;;;;;;19.87;74.01;101157.70;131062;1255;107363;-84
2023/05/20 08:57:32;;;;;;;8.80;7.20;;;;;;;19.94;74.28;101157.59;131257;1251;107535;-88
2023/05/20 09:00:38;;;;;;;11.00;7.60;;;;;;;20.03;74.16;101158.15;131282;1249;107450;-84
2023/05/20 09:03:43;;;;;;;9.30;7.80;;;;;;;20.06;73.73;101156.08;131160;1255;107271;-73
2023/05/20 09:06:51;;;;;;;8.50;7.40;;;;;;;20.07;73.32;101162.02;131110;1249;107378;-74
2023/05/20 09:09:57;;;;;;;8.90;7.00;;;;;;;20.10;73.62;101159.13;130965;1254;107506;-74
2023/05/20 09:13:04;;;;;;;9.00;6.80;;;;;;;20.14;73.48;101158.25;131038;1250;107489;-75
2023/05/20 09:16:11;;;;;;;7.40;6.30;;;;;;;20.15;73.44;101155.21;131179;1250;107290;-73
2023/05/20 09:19:16;;;;;;;8.20;6.20;;;;;;;20.16;73.63;101150.77;131105;1256;107760;-73
2023/05/20 09:22:25;;;;;;;9.00;5.80;;;;;;;20.23;73.36;101155.83;130994;1254;107466;-73
2023/05/20 09:25:31;;;;;;;7.30;6.40;;;;;;;20.28;73.51;101151.95;131065;1250;107561;-73
2023/05/20 09:28:38;;;;;;;7.50;5.80;;;;;;;20.34;73.08;101146.13;130958;1249;107249;-73
2023/05/20 09:31:43;;;;;;;9.70;6.20;;;;;;;20.39;73.36;101147.42;131165;1255;108149;-73
2023/05/20 09:34:50;;;;;;;7.00;6.30;;;;;;;20.44;72.72;101146.63;131183;1256;107602;-73
2023/05/20 09:37:56;;;;;;;8.50;6.20;;;;;;;20.46;72.68;101145.93;130965;1254;107559;-77
2023/05/20 09:41:03;;;;;;;8.00;6.30;;;;;;;20.45;72.69;101141.71;131065;1255;107150;-76
2023/05/20 09:44:10;;;;;;;8.00;6.00;;;;;;;20.47;72.51;101138.75;130964;1256;107525;-74
2023/05/20 09:47:16;;;;;;;9.30;6.00;;;;;;;20.47;72.27;101136.85;131051;1250;106714;-73
2023/05/20 09:50:23;;;;;;;7.60;6.40;;;;;;;20.47;71.90;101140.65;131033;1250;107379;-72
2023/05/20 09:53:29;;;;;;;9.50;7.70;;;;;;;20.52;72.38;101136.80;131052;1266;107194;-73
2023/05/20 09:56:36;;;;;;;9.00;8.10;;;;;;;20.62;72.54;101137.52;131037;1250;107584;-73
2023/05/20 09:59:43;;;;;;;14.50;7.30;;;;;;;20.76;72.45;101137.46;131067;1251;106422;-73
2023/05/20 10:02:50;;;;;;;9.80;7.30;;;;;;;20.94;72.66;101142.04;131096;1256;107258;-73
2023/05/20 10:06:13;;;;;;;8.00;6.60;;;;;;;21.08;72.56;101142.58;130987;1250;105919;-74
2023/05/20 10:09:32;;;;;;;9.60;6.40;;;;;;;21.27;72.06;101145.37;131165;1255;105707;-73
2023/05/20 10:12:45;;;;;;;7.90;6.50;;;;;;;21.34;72.15;101138.97;131352;1250;107372;-74
2023/05/20 10:16:04;;;;;;;7.70;6.90;;;;;;;21.44;71.51;101141.30;131204;1256;107512;-76
2023/05/20 10:19:17;;;;;;;8.30;7.50;;;;;;;21.60;71.74;101142.36;131216;1255;106737;-77
2023/05/20 10:22:30;;;;;;;9.10;6.80;;;;;;;21.79;70.92;101131.20;131193;1254;109109;-77
2023/05/20 10:25:35;;;;;;;8.00;7.20;;;;;;;21.98;70.93;101128.15;131184;1254;106880;-76
2023/05/20 10:28:42;;;;;;;11.70;7.00;;;;;;;22.14;70.45;101125.70;131161;1255;106543;-77
2023/05/20 10:31:50;;;;;;;8.00;6.90;;;;;;;22.24;70.40;101119.82;131062;1255;107546;-78
2023/05/20 10:35:03;;;;;;;8.40;7.10;;;;;;;22.43;70.70;101113.84;131189;1255;107560;-79
2023/05/20 10:38:11;;;;;;;7.90;6.70;;;;;;;22.65;70.71;101106.73;131283;1255;107531;-76
2023/05/20 10:41:23;;;;;;;16.70;8.60;;;;;;;22.84;70.30;101106.61;131133;1250;107543;-76
2023/05/20 10:44:40;;;;;;;9.60;7.90;;;;;;;22.94;69.18;101102.89;131190;1255;107544;-76
2023/05/20 10:47:56;;;;;;;8.80;7.50;;;;;;;22.98;69.32;101104.14;131141;1249;108634;-76
2023/05/20 10:51:03;;;;;;;8.30;7.50;;;;;;;23.15;69.54;101088.58;131212;1250;107208;-72
2023/05/20 10:54:11;;;;;;;11.30;7.70;;;;;;;23.34;68.56;101084.13;131197;1250;107211;-71
2023/05/20 10:57:16;;;;;;;8.20;6.90;;;;;;;23.38;68.43;101081.84;131291;1255;106860;-71
2023/05/20 11:00:23;;;;;;;8.00;6.70;;;;;;;23.43;68.69;101077.00;131173;1254;107524;-71
2023/05/20 11:03:29;;;;;;;9.00;6.90;;;;;;;23.49;68.83;101062.83;131257;1249;107395;-71
2023/05/20 11:06:35;;;;;;;9.80;7.70;;;;;;;23.59;68.80;101060.81;131213;1254;105687;-73
2023/05/20 11:09:49;;;;;;;7.80;6.80;;;;;;;23.74;68.76;101063.02;131297;1249;107533;-71
2023/05/20 11:12:56;;;;;;;11.70;6.80;;;;;;;23.87;68.14;101058.58;131220;1257;105835;-72
2023/05/20 11:16:03;;;;;;;9.10;6.80;;;;;;;24.04;67.63;101054.21;131214;1254;108301;-76
2023/05/20 11:19:14;;;;;;;9.30;7.20;;;;;;;24.09;67.32;101058.14;130986;1263;106967;-72
2023/05/20 11:22:20;;;;;;;9.80;6.80;;;;;;;24.07;67.32;101056.20;131104;1249;107372;-71
2023/05/20 11:25:27;;;;;;;8.00;6.30;;;;;;;24.05;66.92;101051.42;131035;1254;107248;-71
2023/05/20 11:28:35;;;;;;;7.40;6.50;;;;;;;23.99;66.71;101050.98;131306;1250;107290;-72
2023/05/20 11:31:40;;;;;;;8.40;7.00;;;;;;;23.98;66.18;101051.80;131269;1249;107267;-75
2023/05/20 11:34:46;;;;;;;8.90;6.20;;;;;;;23.95;66.61;101052.73;131336;1262;107311;-72
2023/05/20 11:37:58;;;;;;;10.20;7.60;;;;;;;23.98;66.02;101047.60;131079;1254;107285;-72
2023/05/20 11:41:03;;;;;;;9.50;7.60;;;;;;;24.01;66.21;101042.23;131374;1249;107358;-72
2023/05/20 11:44:12;;;;;;;10.20;8.10;;;;;;;24.09;65.85;101041.45;131335;1255;107468;-71
2023/05/20 11:47:26;;;;;;;10.30;8.10;;;;;;;24.18;65.67;101043.98;131493;1249;108118;-72
2023/05/20 11:50:38;;;;;;;8.80;8.00;;;;;;;24.18;65.64;101044.10;133514;1249;106563;-72
2023/05/20 11:53:47;;;;;;;9.10;7.10;;;;;;;24.14;65.51;101044.56;131016;1255;107523;-71
2023/05/20 11:56:55;;;;;;;9.90;9.00;;;;;;;24.21;65.62;101040.88;131200;1255;105863;-71
2023/05/20 12:00:01;;;;;;;12.70;8.90;;;;;;;24.35;65.61;101040.45;131027;1256;108656;-72
2023/05/20 12:03:06;;;;;;;10.20;9.20;;;;;;;24.49;64.44;101037.88;131091;1256;107526;-74
2023/05/20 12:06:14;;;;;;;10.20;8.70;;;;;;;24.67;63.64;101040.27;130966;1249;107499;-72
2023/05/20 12:09:20;;;;;;;11.10;9.20;;;;;;;24.84;63.72;101037.71;131106;1256;107489;-72
2023/05/20 12:12:25;;;;;;;11.30;8.90;;;;;;;24.93;63.38;101030.37;131188;1254;108014;-72
2023/05/20 12:15:31;;;;;;;9.70;8.70;;;;;;;24.98;62.61;101029.27;130976;1254;107493;-71
2023/05/20 12:18:36;;;;;;;9.70;8.00;;;;;;;25.01;62.55;101029.89;130952;1254;106520;-72
2023/05/20 12:21:42;;;;;;;11.00;8.60;;;;;;;25.01;62.49;101024.14;131219;1255;107449;-71
2023/05/20 12:24:47;;;;;;;9.30;8.40;;;;;;;24.99;61.86;101026.77;131138;1255;107631;-71
2023/05/20 12:27:53;;;;;;;10.30;8.80;;;;;;;24.93;61.70;101027.94;131079;1256;107273;-71
2023/05/20 12:30:58;;;;;;;9.50;8.60;;;;;;;24.95;62.07;101025.48;131046;1255;107238;-72
2023/05/20 12:34:04;;;;;;;9.10;8.20;;;;;;;24.99;61.99;101028.66;131036;1255;107848;-71
2023/05/20 12:37:09;;;;;;;9.50;8.20;;;;;;;25.02;61.37;101031.89;130965;1254;107493;-71
2023/05/20 12:40:15;;;;;;;9.20;7.90;;;;;;;25.03;61.28;101027.06;130983;1255;107554;-71
2023/05/20 12:43:21;;;;;;;8.60;7.70;;;;;;;24.98;60.65;101023.98;131045;1254;106629;-71
2023/05/20 12:46:27;;;;;;;9.20;8.30;;;;;;;24.99;61.02;101018.54;131061;1254;107424;-72
2023/05/20 12:49:32;;;;;;;9.20;8.30;;;;;;;25.08;60.93;101005.95;131054;1256;107518;-72
2023/05/20 12:52:38;;;;;;;9.70;8.50;;;;;;;25.17;61.06;101000.07;131049;1257;107265;-71
2023/05/20 12:55:43;;;;;;;8.80;7.90;;;;;;;25.25;60.69;100999.73;131114;1255;107354;-72
2023/05/20 12:58:49;;;;;;;8.40;7.60;;;;;;;25.09;59.83;100999.92;131084;1251;107247;-71
2023/05/20 13:01:54;;;;;;;8.60;7.70;;;;;;;24.84;59.47;100998.58;131228;1256;108318;-73
2023/05/20 13:05:00;;;;;;;8.20;7.50;;;;;;;24.66;59.51;100992.00;131193;1254;106684;-72
2023/05/20 13:08:07;;;;;;;8.20;7.00;;;;;;;24.58;59.84;100987.91;131158;1259;107515;-72
2023/05/20 13:11:13;;;;;;;8.50;7.70;;;;;;;24.58;59.49;100975.02;131296;1256;107322;-71
2023/05/20 13:14:18;;;;;;;8.30;7.50;;;;;;;24.60;59.70;100970.23;131314;1249;107228;-71
2023/05/20 13:17:24;;;;;;;9.70;7.30;;;;;;;24.66;59.54;100972.69;131066;1255;107640;-71
2023/05/20 13:20:29;;;;;;;7.80;7.00;;;;;;;24.68;59.42;100967.34;131103;1272;107538;-71
2023/05/20 13:23:35;;;;;;;8.10;7.30;;;;;;;24.75;59.27;100970.22;131028;1255;107502;-71
2023/05/20 13:26:41;;;;;;;8.60;7.30;;;;;;;24.79;59.13;100967.52;131295;1253;107191;-71
2023/05/20 13:29:47;;;;;;;8.50;7.70;;;;;;;24.79;58.76;100966.35;131202;1263;107522;-74
2023/05/20 13:32:52;;;;;;;9.90;7.80;;;;;;;24.78;58.99;100966.02;131260;1254;107498;-70
2023/05/20 13:35:58;;;;;;;8.50;7.40;;;;;;;24.87;58.60;100965.03;131130;1256;107412;-74
2023/05/20 13:39:04;;;;;;;8.10;7.40;;;;;;;24.93;58.50;100962.67;130998;1254;106412;-71
2023/05/20 13:42:09;;;;;;;8.60;7.80;;;;;;;24.98;58.34;100955.67;131018;1256;107513;-72
2023/05/20 13:45:15;;;;;;;8.90;8.00;;;;;;;25.08;57.59;100948.94;131024;1250;107254;-73
2023/05/20 13:48:20;;;;;;;8.10;7.40;;;;;;;25.04;56.91;100953.52;130984;1257;107609;-72
2023/05/20 13:51:26;;;;;;;9.80;7.80;;;;;;;25.01;57.11;100954.16;131035;1251;107509;-71
2023/05/20 13:54:31;;;;;;;8.30;7.60;;;;;;;25.02;56.61;100942.01;131108;1256;107319;-72
2023/05/20 13:57:37;;;;;;;8.00;7.30;;;;;;;25.06;56.38;100942.00;131202;1251;107455;-71
2023/05/20 14:00:42;;;;;;;8.20;7.50;;;;;;;25.12;56.39;100942.70;131239;1263;107502;-72
2023/05/20 14:03:48;;;;;;;7.60;7.00;;;;;;;25.25;56.55;100937.77;131033;1255;107508;-71